sensor_id;sensor_type;location;lat;lon;timestamp;pressure;altitude;pressure_sealevel;temperature;humidity
21395;BME280;10858;42.714;23.180;2023-05-18T00:02:02;93911.25;;;14.65;96.67
21395;BME280;10858;42.714;23.180;2023-05-18T00:04:33;93908.28;;;14.68;96.35
21395;BME280;10858;42.714;23.180;2023-05-18T00:07:00;93905.13;;;14.65;96.49
21395;BME280;10858;42.714;23.180;2023-05-18T00:09:34;93905.13;;;14.65;96.59
21395;BME280;10858;42.714;23.180;2023-05-18T00:12:01;93905.41;;;14.70;96.51
21395;BME280;10858;42.714;23.180;2023-05-18T00:14:28;93906.59;;;14.67;96.62
21395;BME280;10858;42.714;23.180;2023-05-18T00:16:54;93894.59;;;14.63;96.52
21395;BME280;10858;42.714;23.180;2023-05-18T00:19:21;93907.59;;;14.66;96.67
21395;BME280;10858;42.714;23.180;2023-05-18T00:21:50;93899.94;;;14.63;96.21
21395;BME280;10858;42.714;23.180;2023-05-18T00:24:17;93901.91;;;14.69;96.47
21395;BME280;10858;42.714;23.180;2023-05-18T00:26:44;93908.56;;;14.73;96.08
21395;BME280;10858;42.714;23.180;2023-05-18T00:29:11;93913.25;;;14.71;96.03
21395;BME280;10858;42.714;23.180;2023-05-18T00:31:38;93902.22;;;14.82;95.43
21395;BME280;10858;42.714;23.180;2023-05-18T00:34:05;93904.91;;;14.74;95.70
21395;BME280;10858;42.714;23.180;2023-05-18T00:36:32;93903.59;;;14.70;96.06
21395;BME280;10858;42.714;23.180;2023-05-18T00:38:59;93911.78;;;14.69;96.16
21395;BME280;10858;42.714;23.180;2023-05-18T00:41:26;93909.91;;;14.69;96.18
21395;BME280;10858;42.714;23.180;2023-05-18T00:43:53;93912.81;;;14.43;95.93
21395;BME280;10858;42.714;23.180;2023-05-18T00:46:21;93910.16;;;14.27;96.88
21395;BME280;10858;42.714;23.180;2023-05-18T00:48:51;93913.66;;;14.44;97.42
21395;BME280;10858;42.714;23.180;2023-05-18T00:51:19;93908.47;;;14.59;96.50
21395;BME280;10858;42.714;23.180;2023-05-18T00:53:48;93896.78;;;14.60;96.78
21395;BME280;10858;42.714;23.180;2023-05-18T00:56:15;93903.78;;;14.61;96.52
21395;BME280;10858;42.714;23.180;2023-05-18T00:58:42;93903.63;;;14.54;96.18
21395;BME280;10858;42.714;23.180;2023-05-18T01:01:08;93898.13;;;14.47;96.49
21395;BME280;10858;42.714;23.180;2023-05-18T01:03:38;93902.94;;;14.60;96.63
21395;BME280;10858;42.714;23.180;2023-05-18T01:06:05;93895.94;;;14.51;96.34
21395;BME280;10858;42.714;23.180;2023-05-18T01:08:32;93897.84;;;14.42;96.53
21395;BME280;10858;42.714;23.180;2023-05-18T01:13:42;93888.63;;;14.45;96.86
21395;BME280;10858;42.714;23.180;2023-05-18T01:16:17;93901.94;;;14.53;96.74
21395;BME280;10858;42.714;23.180;2023-05-18T01:18:53;93895.28;;;14.49;96.57
21395;BME280;10858;42.714;23.180;2023-05-18T01:26:58;93898.00;;;14.33;96.50
21395;BME280;10858;42.714;23.180;2023-05-18T01:29:26;93895.31;;;14.17;97.26
21395;BME280;10858;42.714;23.180;2023-05-18T01:31:53;93890.31;;;14.14;97.45
21395;BME280;10858;42.714;23.180;2023-05-18T01:34:19;93893.47;;;14.17;97.83
21395;BME280;10858;42.714;23.180;2023-05-18T01:36:45;93888.97;;;14.26;97.15
21395;BME280;10858;42.714;23.180;2023-05-18T01:39:11;93892.34;;;14.28;96.89
21395;BME280;10858;42.714;23.180;2023-05-18T01:41:45;93897.00;;;14.34;96.79
21395;BME280;10858;42.714;23.180;2023-05-18T01:44:21;93903.00;;;14.44;96.75
21395;BME280;10858;42.714;23.180;2023-05-18T01:47:11;93900.66;;;14.41;96.43
21395;BME280;10858;42.714;23.180;2023-05-18T01:50:06;93901.66;;;14.40;96.68
21395;BME280;10858;42.714;23.180;2023-05-18T01:55:04;93907.28;;;14.53;95.97
21395;BME280;10858;42.714;23.180;2023-05-18T01:57:32;93907.47;;;14.43;95.69
21395;BME280;10858;42.714;23.180;2023-05-18T02:00:00;93901.97;;;14.37;96.24
21395;BME280;10858;42.714;23.180;2023-05-18T02:02:27;93907.19;;;14.30;96.65
21395;BME280;10858;42.714;23.180;2023-05-18T02:04:54;93900.81;;;14.23;97.23
21395;BME280;10858;42.714;23.180;2023-05-18T02:07:20;93898.81;;;14.25;97.45
21395;BME280;10858;42.714;23.180;2023-05-18T02:09:46;93897.00;;;14.18;97.82
21395;BME280;10858;42.714;23.180;2023-05-18T02:12:12;93903.66;;;14.22;98.04
21395;BME280;10858;42.714;23.180;2023-05-18T02:14:39;93905.16;;;14.16;98.08
21395;BME280;10858;42.714;23.180;2023-05-18T02:17:05;93908.34;;;14.28;97.91
21395;BME280;10858;42.714;23.180;2023-05-18T02:19:32;93910.00;;;14.29;97.56
21395;BME280;10858;42.714;23.180;2023-05-18T02:22:03;93919.84;;;14.44;96.39
21395;BME280;10858;42.714;23.180;2023-05-18T02:24:32;93915.84;;;14.32;96.44
21395;BME280;10858;42.714;23.180;2023-05-18T02:26:58;93908.16;;;14.21;97.28
21395;BME280;10858;42.714;23.180;2023-05-18T02:29:24;93919.66;;;14.22;97.38
21395;BME280;10858;42.714;23.180;2023-05-18T02:31:51;93919.00;;;14.36;96.92
21395;BME280;10858;42.714;23.180;2023-05-18T02:34:17;93926.34;;;14.42;96.02
21395;BME280;10858;42.714;23.180;2023-05-18T02:36:44;93915.84;;;14.16;96.68
21395;BME280;10858;42.714;23.180;2023-05-18T02:39:11;93927.34;;;14.09;98.16
21395;BME280;10858;42.714;23.180;2023-05-18T02:41:38;93923.50;;;14.19;97.17
21395;BME280;10858;42.714;23.180;2023-05-18T02:44:04;93919.69;;;14.06;96.41
21395;BME280;10858;42.714;23.180;2023-05-18T02:46:31;93922.03;;;14.01;97.96
21395;BME280;10858;42.714;23.180;2023-05-18T02:48:58;93922.34;;;14.06;97.25
21395;BME280;10858;42.714;23.180;2023-05-18T02:51:25;93930.50;;;14.12;97.87
21395;BME280;10858;42.714;23.180;2023-05-18T02:53:51;93924.34;;;14.20;96.41
21395;BME280;10858;42.714;23.180;2023-05-18T02:56:17;93927.69;;;13.98;97.35
21395;BME280;10858;42.714;23.180;2023-05-18T02:58:44;93932.16;;;13.81;98.23
21395;BME280;10858;42.714;23.180;2023-05-18T03:01:11;93938.50;;;13.96;98.16
21395;BME280;10858;42.714;23.180;2023-05-18T03:03:38;93940.53;;;14.02;97.58
21395;BME280;10858;42.714;23.180;2023-05-18T03:06:05;93947.00;;;14.00;97.32
21395;BME280;10858;42.714;23.180;2023-05-18T03:08:33;93950.16;;;13.95;97.19
21395;BME280;10858;42.714;23.180;2023-05-18T03:11:02;93954.69;;;13.95;98.13
21395;BME280;10858;42.714;23.180;2023-05-18T03:13:28;93953.69;;;14.04;97.81
21395;BME280;10858;42.714;23.180;2023-05-18T03:15:54;93953.00;;;14.18;96.04
21395;BME280;10858;42.714;23.180;2023-05-18T03:18:21;93969.38;;;13.99;96.48
21395;BME280;10858;42.714;23.180;2023-05-18T03:20:50;93974.34;;;13.94;97.51
21395;BME280;10858;42.714;23.180;2023-05-18T03:23:17;93972.50;;;13.94;97.37
21395;BME280;10858;42.714;23.180;2023-05-18T03:25:43;93976.31;;;13.84;98.04
21395;BME280;10858;42.714;23.180;2023-05-18T03:28:10;93984.53;;;14.06;96.97
21395;BME280;10858;42.714;23.180;2023-05-18T03:30:36;93985.50;;;13.97;97.02
21395;BME280;10858;42.714;23.180;2023-05-18T03:33:03;93988.03;;;13.99;97.10
21395;BME280;10858;42.714;23.180;2023-05-18T03:35:29;93982.16;;;13.95;97.30
21395;BME280;10858;42.714;23.180;2023-05-18T03:37:55;93986.00;;;13.85;98.24
21395;BME280;10858;42.714;23.180;2023-05-18T03:40:22;93985.03;;;14.10;97.65
21395;BME280;10858;42.714;23.180;2023-05-18T03:42:49;93987.19;;;14.22;97.36
21395;BME280;10858;42.714;23.180;2023-05-18T03:45:17;93986.56;;;14.36;97.17
21395;BME280;10858;42.714;23.180;2023-05-18T03:47:43;93995.56;;;14.35;96.71
21395;BME280;10858;42.714;23.180;2023-05-18T03:50:10;93992.41;;;14.40;95.93
21395;BME280;10858;42.714;23.180;2023-05-18T03:52:36;93994.41;;;14.38;96.01
21395;BME280;10858;42.714;23.180;2023-05-18T03:55:03;93989.22;;;14.44;96.60
21395;BME280;10858;42.714;23.180;2023-05-18T03:57:30;93994.41;;;14.38;95.87
21395;BME280;10858;42.714;23.180;2023-05-18T03:59:57;94001.06;;;14.34;97.49
21395;BME280;10858;42.714;23.180;2023-05-18T04:02:24;93998.03;;;14.53;96.80
21395;BME280;10858;42.714;23.180;2023-05-18T04:04:50;93990.84;;;14.78;95.90
21395;BME280;10858;42.714;23.180;2023-05-18T04:07:19;93999.88;;;14.77;95.38
21395;BME280;10858;42.714;23.180;2023-05-18T04:09:50;94008.88;;;14.52;95.36
21395;BME280;10858;42.714;23.180;2023-05-18T04:12:17;94008.56;;;14.71;96.19
21395;BME280;10858;42.714;23.180;2023-05-18T04:14:43;94013.25;;;14.44;95.62
21395;BME280;10858;42.714;23.180;2023-05-18T04:17:15;94017.75;;;14.52;96.19
21395;BME280;10858;42.714;23.180;2023-05-18T04:19:42;94009.38;;;14.63;95.45
21395;BME280;10858;42.714;23.180;2023-05-18T04:22:08;94014.72;;;14.71;94.74
21395;BME280;10858;42.714;23.180;2023-05-18T04:24:34;94009.03;;;14.82;94.76
21395;BME280;10858;42.714;23.180;2023-05-18T04:27:01;94008.00;;;14.91;94.52
21395;BME280;10858;42.714;23.180;2023-05-18T04:29:28;94020.19;;;14.86;93.22
21395;BME280;10858;42.714;23.180;2023-05-18T04:31:58;94016.00;;;14.91;94.24
21395;BME280;10858;42.714;23.180;2023-05-18T04:34:27;94016.88;;;14.84;93.84
21395;BME280;10858;42.714;23.180;2023-05-18T04:36:55;94024.66;;;15.01;93.66
21395;BME280;10858;42.714;23.180;2023-05-18T04:39:23;94021.81;;;15.11;92.26
21395;BME280;10858;42.714;23.180;2023-05-18T04:41:50;94022.00;;;14.93;91.49
21395;BME280;10858;42.714;23.180;2023-05-18T04:44:32;94024.88;;;14.92;93.17
21395;BME280;10858;42.714;23.180;2023-05-18T04:47:02;94030.72;;;14.79;92.92
21395;BME280;10858;42.714;23.180;2023-05-18T04:49:29;94030.88;;;14.86;94.46
21395;BME280;10858;42.714;23.180;2023-05-18T04:51:56;94036.03;;;14.95;93.65
21395;BME280;10858;42.714;23.180;2023-05-18T04:54:25;94033.34;;;14.95;93.39
21395;BME280;10858;42.714;23.180;2023-05-18T04:56:53;94039.22;;;14.99;93.31
21395;BME280;10858;42.714;23.180;2023-05-18T04:59:19;94036.00;;;15.03;93.27
21395;BME280;10858;42.714;23.180;2023-05-18T05:01:45;94045.75;;;14.80;93.60
21395;BME280;10858;42.714;23.180;2023-05-18T05:04:12;94052.91;;;14.80;94.40
21395;BME280;10858;42.714;23.180;2023-05-18T05:06:39;94043.41;;;14.85;93.94
21395;BME280;10858;42.714;23.180;2023-05-18T05:09:05;94049.25;;;14.97;93.00
21395;BME280;10858;42.714;23.180;2023-05-18T05:11:32;94051.75;;;14.98;92.99
21395;BME280;10858;42.714;23.180;2023-05-18T05:13:58;94055.06;;;15.00;93.82
21395;BME280;10858;42.714;23.180;2023-05-18T05:16:24;94051.38;;;15.09;93.85
21395;BME280;10858;42.714;23.180;2023-05-18T05:18:50;94077.44;;;14.99;93.32
21395;BME280;10858;42.714;23.180;2023-05-18T05:21:17;94061.91;;;15.03;93.10
21395;BME280;10858;42.714;23.180;2023-05-18T05:23:43;94067.94;;;15.05;92.75
21395;BME280;10858;42.714;23.180;2023-05-18T05:26:10;94073.78;;;14.84;92.62
21395;BME280;10858;42.714;23.180;2023-05-18T05:28:36;94075.13;;;14.88;91.69
21395;BME280;10858;42.714;23.180;2023-05-18T05:31:02;94070.47;;;14.74;92.84
21395;BME280;10858;42.714;23.180;2023-05-18T05:33:29;94077.97;;;14.71;93.25
21395;BME280;10858;42.714;23.180;2023-05-18T05:35:55;94083.47;;;14.61;93.02
21395;BME280;10858;42.714;23.180;2023-05-18T05:38:21;94081.31;;;14.57;93.62
21395;BME280;10858;42.714;23.180;2023-05-18T05:40:48;94087.16;;;14.60;93.67
21395;BME280;10858;42.714;23.180;2023-05-18T05:43:14;94093.47;;;14.51;94.16
21395;BME280;10858;42.714;23.180;2023-05-18T05:45:40;94094.13;;;14.61;94.25
21395;BME280;10858;42.714;23.180;2023-05-18T05:48:08;94098.50;;;14.70;93.75
21395;BME280;10858;42.714;23.180;2023-05-18T05:50:34;94095.81;;;14.62;93.45
21395;BME280;10858;42.714;23.180;2023-05-18T05:53:01;94099.66;;;14.68;93.64
21395;BME280;10858;42.714;23.180;2023-05-18T05:55:27;94098.13;;;14.73;93.44
21395;BME280;10858;42.714;23.180;2023-05-18T05:57:53;94100.66;;;14.75;92.76
21395;BME280;10858;42.714;23.180;2023-05-18T06:00:20;94097.47;;;14.71;92.98
21395;BME280;10858;42.714;23.180;2023-05-18T06:02:46;94102.97;;;14.54;94.01
21395;BME280;10858;42.714;23.180;2023-05-18T06:05:13;94105.47;;;14.55;94.68
21395;BME280;10858;42.714;23.180;2023-05-18T06:07:39;94101.16;;;14.46;96.20
21395;BME280;10858;42.714;23.180;2023-05-18T06:10:06;94105.81;;;14.44;95.54
21395;BME280;10858;42.714;23.180;2023-05-18T06:12:33;94106.47;;;14.30;96.39
21395;BME280;10858;42.714;23.180;2023-05-18T06:14:59;94116.66;;;14.34;95.52
21395;BME280;10858;42.714;23.180;2023-05-18T06:17:26;94115.41;;;14.21;96.04
21395;BME280;10858;42.714;23.180;2023-05-18T06:19:53;94112.41;;;14.24;96.70
21395;BME280;10858;42.714;23.180;2023-05-18T06:22:19;94115.16;;;14.48;97.26
21395;BME280;10858;42.714;23.180;2023-05-18T06:24:46;94111.97;;;14.28;95.10
21395;BME280;10858;42.714;23.180;2023-05-18T06:27:12;94115.81;;;14.34;94.77
21395;BME280;10858;42.714;23.180;2023-05-18T06:29:38;94125.38;;;14.69;96.20
21395;BME280;10858;42.714;23.180;2023-05-18T06:32:05;94116.50;;;15.08;94.50
21395;BME280;10858;42.714;23.180;2023-05-18T06:34:31;94118.47;;;15.39;93.16
21395;BME280;10858;42.714;23.180;2023-05-18T06:36:58;94120.97;;;15.48;92.33
21395;BME280;10858;42.714;23.180;2023-05-18T06:39:24;94127.66;;;15.28;90.59
21395;BME280;10858;42.714;23.180;2023-05-18T06:41:51;94127.97;;;15.49;88.24
21395;BME280;10858;42.714;23.180;2023-05-18T06:44:17;94133.44;;;15.64;89.57
21395;BME280;10858;42.714;23.180;2023-05-18T06:46:44;94130.16;;;16.00;90.65
21395;BME280;10858;42.714;23.180;2023-05-18T06:49:12;94137.03;;;15.95;88.48
21395;BME280;10858;42.714;23.180;2023-05-18T06:51:38;94140.03;;;15.92;85.15
21395;BME280;10858;42.714;23.180;2023-05-18T06:54:04;94148.00;;;16.08;88.66
21395;BME280;10858;42.714;23.180;2023-05-18T06:56:31;94143.78;;;15.83;83.06
21395;BME280;10858;42.714;23.180;2023-05-18T06:58:57;94150.38;;;16.03;84.30
21395;BME280;10858;42.714;23.180;2023-05-18T07:01:23;94151.66;;;16.15;82.70
21395;BME280;10858;42.714;23.180;2023-05-18T07:03:50;94156.66;;;15.71;80.32
21395;BME280;10858;42.714;23.180;2023-05-18T07:06:16;94153.84;;;15.65;82.74
21395;BME280;10858;42.714;23.180;2023-05-18T07:08:43;94159.59;;;16.00;82.61
21395;BME280;10858;42.714;23.180;2023-05-18T07:11:10;94161.28;;;16.32;79.79
21395;BME280;10858;42.714;23.180;2023-05-18T07:13:36;94164.75;;;16.02;82.23
21395;BME280;10858;42.714;23.180;2023-05-18T07:16:02;94166.00;;;16.22;81.20
21395;BME280;10858;42.714;23.180;2023-05-18T07:18:29;94171.34;;;16.22;79.64
21395;BME280;10858;42.714;23.180;2023-05-18T07:20:55;94161.97;;;16.26;80.52
21395;BME280;10858;42.714;23.180;2023-05-18T07:23:21;94174.81;;;15.92;79.36
21395;BME280;10858;42.714;23.180;2023-05-18T07:25:48;94172.47;;;15.97;79.40
21395;BME280;10858;42.714;23.180;2023-05-18T07:28:14;94167.50;;;15.78;79.53
21395;BME280;10858;42.714;23.180;2023-05-18T07:30:40;94179.41;;;15.67;79.77
21395;BME280;10858;42.714;23.180;2023-05-18T07:33:07;94180.78;;;15.47;81.89
21395;BME280;10858;42.714;23.180;2023-05-18T07:35:33;94179.09;;;15.54;80.61
21395;BME280;10858;42.714;23.180;2023-05-18T07:37:59;94187.59;;;15.66;80.43
21395;BME280;10858;42.714;23.180;2023-05-18T07:40:25;94193.47;;;15.37;79.15
21395;BME280;10858;42.714;23.180;2023-05-18T07:42:52;94195.16;;;15.54;81.97
21395;BME280;10858;42.714;23.180;2023-05-18T07:45:18;94189.81;;;15.46;81.00
21395;BME280;10858;42.714;23.180;2023-05-18T07:47:44;94199.97;;;15.67;78.87
21395;BME280;10858;42.714;23.180;2023-05-18T07:50:10;94205.16;;;15.60;79.98
21395;BME280;10858;42.714;23.180;2023-05-18T07:52:36;94198.97;;;15.68;79.97
21395;BME280;10858;42.714;23.180;2023-05-18T07:55:03;94208.31;;;15.64;79.19
21395;BME280;10858;42.714;23.180;2023-05-18T07:57:29;94212.66;;;15.73;80.26
21395;BME280;10858;42.714;23.180;2023-05-18T07:59:55;94212.28;;;15.84;80.25
21395;BME280;10858;42.714;23.180;2023-05-18T08:02:22;94205.78;;;15.86;80.04
21395;BME280;10858;42.714;23.180;2023-05-18T08:04:48;94221.66;;;15.88;79.59
21395;BME280;10858;42.714;23.180;2023-05-18T08:07:15;94217.88;;;16.21;80.61
21395;BME280;10858;42.714;23.180;2023-05-18T08:09:43;94223.19;;;15.82;78.48
21395;BME280;10858;42.714;23.180;2023-05-18T08:12:09;94219.94;;;16.03;78.80
21395;BME280;10858;42.714;23.180;2023-05-18T08:14:35;94225.13;;;16.04;79.79
21395;BME280;10858;42.714;23.180;2023-05-18T08:17:03;94224.78;;;15.99;77.02
21395;BME280;10858;42.714;23.180;2023-05-18T08:19:29;94238.41;;;15.74;76.67
21395;BME280;10858;42.714;23.180;2023-05-18T08:21:56;94239.22;;;15.82;78.39
21395;BME280;10858;42.714;23.180;2023-05-18T08:24:22;94242.28;;;16.26;78.76
21395;BME280;10858;42.714;23.180;2023-05-18T08:26:48;94236.88;;;16.42;78.88
21395;BME280;10858;42.714;23.180;2023-05-18T08:29:14;94249.50;;;16.09;76.98
21395;BME280;10858;42.714;23.180;2023-05-18T08:31:41;94258.13;;;15.73;76.58
21395;BME280;10858;42.714;23.180;2023-05-18T08:34:07;94249.44;;;15.71;77.93
21395;BME280;10858;42.714;23.180;2023-05-18T08:36:34;94251.94;;;15.80;76.52
21395;BME280;10858;42.714;23.180;2023-05-18T08:39:01;94258.28;;;15.55;76.99
21395;BME280;10858;42.714;23.180;2023-05-18T08:42:00;94257.28;;;15.80;78.13
21395;BME280;10858;42.714;23.180;2023-05-18T08:44:48;94257.44;;;15.95;76.47
21395;BME280;10858;42.714;23.180;2023-05-18T08:47:16;94261.50;;;15.59;77.06
21395;BME280;10858;42.714;23.180;2023-05-18T08:49:42;94270.97;;;15.21;76.51
21395;BME280;10858;42.714;23.180;2023-05-18T08:52:10;94266.47;;;15.38;77.17
21395;BME280;10858;42.714;23.180;2023-05-18T08:54:41;94278.50;;;15.42;77.64
21395;BME280;10858;42.714;23.180;2023-05-18T08:57:08;94284.66;;;15.26;74.72
21395;BME280;10858;42.714;23.180;2023-05-18T08:59:38;94284.00;;;15.32;75.20
21395;BME280;10858;42.714;23.180;2023-05-18T09:02:06;94284.47;;;15.19;76.70
21395;BME280;10858;42.714;23.180;2023-05-18T09:04:32;94290.19;;;15.32;76.87
21395;BME280;10858;42.714;23.180;2023-05-18T09:07:03;94288.88;;;15.37;76.57
21395;BME280;10858;42.714;23.180;2023-05-18T09:09:30;94298.53;;;15.38;76.99
21395;BME280;10858;42.714;23.180;2023-05-18T09:11:57;94297.19;;;15.42;76.85
21395;BME280;10858;42.714;23.180;2023-05-18T09:14:23;94298.94;;;15.51;76.76
21395;BME280;10858;42.714;23.180;2023-05-18T09:16:54;94301.91;;;15.56;77.21
21395;BME280;10858;42.714;23.180;2023-05-18T09:19:21;94308.78;;;15.66;77.18
21395;BME280;10858;42.714;23.180;2023-05-18T09:21:49;94316.13;;;15.64;78.62
21395;BME280;10858;42.714;23.180;2023-05-18T09:24:15;94317.78;;;15.41;75.77
21395;BME280;10858;42.714;23.180;2023-05-18T09:26:44;94312.22;;;15.18;76.65
21395;BME280;10858;42.714;23.180;2023-05-18T09:29:20;94306.69;;;15.04;76.59
21395;BME280;10858;42.714;23.180;2023-05-18T09:31:47;94311.19;;;15.11;75.76
21395;BME280;10858;42.714;23.180;2023-05-18T09:34:14;94314.38;;;15.07;77.41
21395;BME280;10858;42.714;23.180;2023-05-18T09:36:41;94309.88;;;15.23;77.20
21395;BME280;10858;42.714;23.180;2023-05-18T09:39:11;94304.59;;;15.64;75.36
21395;BME280;10858;42.714;23.180;2023-05-18T09:41:39;94315.28;;;15.64;72.34
21395;BME280;10858;42.714;23.180;2023-05-18T09:44:06;94314.31;;;15.65;74.17
21395;BME280;10858;42.714;23.180;2023-05-18T09:46:40;94315.78;;;15.91;76.74
21395;BME280;10858;42.714;23.180;2023-05-18T09:49:07;94322.31;;;15.97;76.88
21395;BME280;10858;42.714;23.180;2023-05-18T09:51:38;94319.88;;;16.34;76.63
21395;BME280;10858;42.714;23.180;2023-05-18T09:54:06;94321.88;;;16.56;75.27
21395;BME280;10858;42.714;23.180;2023-05-18T09:56:37;94326.94;;;16.35;75.26
21395;BME280;10858;42.714;23.180;2023-05-18T09:59:11;94329.63;;;16.27;73.80
21395;BME280;10858;42.714;23.180;2023-05-18T10:04:21;94329.47;;;16.12;76.26
21395;BME280;10858;42.714;23.180;2023-05-18T10:06:50;94330.31;;;16.13;75.67
21395;BME280;10858;42.714;23.180;2023-05-18T10:09:17;94337.00;;;16.17;75.40
21395;BME280;10858;42.714;23.180;2023-05-18T10:11:43;94342.66;;;16.22;75.46
21395;BME280;10858;42.714;23.180;2023-05-18T10:14:12;94342.69;;;16.14;76.89
21395;BME280;10858;42.714;23.180;2023-05-18T10:16:40;94343.03;;;16.11;74.51
21395;BME280;10858;42.714;23.180;2023-05-18T10:19:08;94347.66;;;16.41;76.69
21395;BME280;10858;42.714;23.180;2023-05-18T10:21:36;94331.19;;;16.68;73.84
21395;BME280;10858;42.714;23.180;2023-05-18T10:24:05;94337.81;;;16.88;73.54
21395;BME280;10858;42.714;23.180;2023-05-18T10:26:35;94341.03;;;16.76;73.81
21395;BME280;10858;42.714;23.180;2023-05-18T10:29:04;94339.38;;;17.06;75.07
21395;BME280;10858;42.714;23.180;2023-05-18T10:31:32;94346.97;;;17.33;75.71
21395;BME280;10858;42.714;23.180;2023-05-18T10:34:00;94347.72;;;17.72;75.07
21395;BME280;10858;42.714;23.180;2023-05-18T10:36:27;94349.81;;;17.62;70.09
21395;BME280;10858;42.714;23.180;2023-05-18T10:38:56;94339.53;;;17.73;72.43
21395;BME280;10858;42.714;23.180;2023-05-18T10:41:26;94347.56;;;17.51;69.99
21395;BME280;10858;42.714;23.180;2023-05-18T10:43:54;94344.88;;;17.43;71.82
21395;BME280;10858;42.714;23.180;2023-05-18T10:46:21;94347.50;;;17.59;70.41
21395;BME280;10858;42.714;23.180;2023-05-18T10:48:53;94350.53;;;17.48;71.56
21395;BME280;10858;42.714;23.180;2023-05-18T10:51:20;94351.66;;;17.31;71.68
21395;BME280;10858;42.714;23.180;2023-05-18T10:53:47;94354.56;;;17.52;72.38
21395;BME280;10858;42.714;23.180;2023-05-18T10:56:18;94358.34;;;17.35;73.79
21395;BME280;10858;42.714;23.180;2023-05-18T10:58:44;94358.50;;;17.02;70.94
21395;BME280;10858;42.714;23.180;2023-05-18T11:01:12;94361.28;;;16.78;72.40
21395;BME280;10858;42.714;23.180;2023-05-18T11:03:39;94369.41;;;16.38;71.90
21395;BME280;10858;42.714;23.180;2023-05-18T11:06:07;94369.03;;;16.73;74.20
21395;BME280;10858;42.714;23.180;2023-05-18T11:08:48;94380.38;;;16.75;74.78
21395;BME280;10858;42.714;23.180;2023-05-18T11:11:15;94378.09;;;16.64;74.27
21395;BME280;10858;42.714;23.180;2023-05-18T11:13:48;94376.44;;;16.47;72.86
21395;BME280;10858;42.714;23.180;2023-05-18T11:16:16;94373.22;;;16.60;74.38
21395;BME280;10858;42.714;23.180;2023-05-18T11:18:48;94373.59;;;16.41;74.46
21395;BME280;10858;42.714;23.180;2023-05-18T11:21:28;94378.78;;;16.34;74.17
21395;BME280;10858;42.714;23.180;2023-05-18T11:24:20;94387.00;;;16.16;74.01
21395;BME280;10858;42.714;23.180;2023-05-18T11:26:53;94384.97;;;16.35;75.93
21395;BME280;10858;42.714;23.180;2023-05-18T11:29:40;94388.50;;;16.35;76.30
21395;BME280;10858;42.714;23.180;2023-05-18T11:32:22;94390.66;;;16.24;76.84
21395;BME280;10858;42.714;23.180;2023-05-18T11:34:53;94383.66;;;16.31;74.95
21395;BME280;10858;42.714;23.180;2023-05-18T11:37:55;94389.47;;;16.66;75.13
21395;BME280;10858;42.714;23.180;2023-05-18T11:40:50;94394.78;;;16.74;75.02
21395;BME280;10858;42.714;23.180;2023-05-18T11:43:20;94392.75;;;16.84;74.37
21395;BME280;10858;42.714;23.180;2023-05-18T11:45:54;94386.56;;;16.76;73.75
21395;BME280;10858;42.714;23.180;2023-05-18T11:48:25;94389.84;;;16.55;74.84
21395;BME280;10858;42.714;23.180;2023-05-18T11:50:55;94394.34;;;16.55;75.12
21395;BME280;10858;42.714;23.180;2023-05-18T11:53:23;94399.88;;;16.45;76.54
21395;BME280;10858;42.714;23.180;2023-05-18T11:55:53;94405.94;;;15.99;76.82
21395;BME280;10858;42.714;23.180;2023-05-18T11:58:20;94399.03;;;15.64;78.79
21395;BME280;10858;42.714;23.180;2023-05-18T12:00:49;94400.59;;;14.83;81.62
21395;BME280;10858;42.714;23.180;2023-05-18T12:03:15;94401.25;;;14.85;83.42
21395;BME280;10858;42.714;23.180;2023-05-18T12:05:42;94406.94;;;14.48;85.35
21395;BME280;10858;42.714;23.180;2023-05-18T12:08:17;94413.91;;;14.24;87.38
21395;BME280;10858;42.714;23.180;2023-05-18T12:10:48;94415.88;;;13.96;87.93
21395;BME280;10858;42.714;23.180;2023-05-18T12:13:16;94417.03;;;13.94;88.41
21395;BME280;10858;42.714;23.180;2023-05-18T12:15:43;94420.50;;;14.12;89.64
21395;BME280;10858;42.714;23.180;2023-05-18T12:18:10;94412.41;;;13.78;90.73
21395;BME280;10858;42.714;23.180;2023-05-18T12:20:39;94417.78;;;14.04;90.00
21395;BME280;10858;42.714;23.180;2023-05-18T12:23:05;94415.56;;;14.68;88.50
21395;BME280;10858;42.714;23.180;2023-05-18T12:25:32;94416.66;;;14.91;85.47
21395;BME280;10858;42.714;23.180;2023-05-18T12:27:59;94422.09;;;14.74;85.09
21395;BME280;10858;42.714;23.180;2023-05-18T12:30:27;94417.03;;;14.96;84.52
21395;BME280;10858;42.714;23.180;2023-05-18T12:33:00;94420.28;;;15.16;83.03
21395;BME280;10858;42.714;23.180;2023-05-18T12:35:29;94419.56;;;15.48;81.22
21395;BME280;10858;42.714;23.180;2023-05-18T12:37:57;94420.81;;;15.27;81.52
21395;BME280;10858;42.714;23.180;2023-05-18T12:40:33;94422.50;;;15.37;80.72
21395;BME280;10858;42.714;23.180;2023-05-18T12:43:03;94421.28;;;15.81;77.75
21395;BME280;10858;42.714;23.180;2023-05-18T12:45:33;94420.44;;;15.72;76.87
21395;BME280;10858;42.714;23.180;2023-05-18T12:48:10;94426.78;;;15.87;77.14
21395;BME280;10858;42.714;23.180;2023-05-18T12:50:45;94419.31;;;15.91;78.49
21395;BME280;10858;42.714;23.180;2023-05-18T12:53:12;94429.47;;;15.87;76.97
21395;BME280;10858;42.714;23.180;2023-05-18T12:55:38;94429.47;;;15.79;78.25
21395;BME280;10858;42.714;23.180;2023-05-18T12:58:06;94425.97;;;15.87;79.13
21395;BME280;10858;42.714;23.180;2023-05-18T13:00:38;94437.03;;;16.24;78.06
21395;BME280;10858;42.714;23.180;2023-05-18T13:03:15;94430.31;;;16.60;78.44
21395;BME280;10858;42.714;23.180;2023-05-18T13:06:01;94434.34;;;16.00;76.66
21395;BME280;10858;42.714;23.180;2023-05-18T13:08:27;94433.81;;;15.22;76.92
21395;BME280;10858;42.714;23.180;2023-05-18T13:10:59;94438.88;;;15.42;79.52